createdAt,value
2023-05-15T00:01:23.328Z,99.90
2023-05-15T00:03:26.899Z,99.90
2023-05-15T00:05:30.073Z,99.90
2023-05-15T00:07:32.973Z,99.90
2023-05-15T00:09:35.984Z,99.90
2023-05-15T00:11:44.217Z,99.90
2023-05-15T00:13:51.379Z,99.90
2023-05-15T00:15:55.679Z,99.90
2023-05-15T00:17:58.677Z,99.90
2023-05-15T00:20:01.518Z,99.90
2023-05-15T00:22:04.663Z,99.90
2023-05-15T00:24:08.265Z,99.90
2023-05-15T00:26:11.219Z,99.90
2023-05-15T00:28:14.476Z,99.90
2023-05-15T00:30:17.559Z,99.90
2023-05-15T00:32:23.123Z,99.90
2023-05-15T00:34:39.620Z,99.90
2023-05-15T00:36:42.635Z,99.90
2023-05-15T00:38:45.576Z,99.90
2023-05-15T00:40:50.821Z,99.90
2023-05-15T00:42:54.348Z,99.90
2023-05-15T00:44:59.236Z,99.90
2023-05-15T00:47:03.408Z,99.90
2023-05-15T00:49:13.223Z,99.90
2023-05-15T00:51:16.389Z,99.90
2023-05-15T00:53:19.905Z,99.90
2023-05-15T00:55:22.968Z,99.90
2023-05-15T00:57:27.935Z,99.90
2023-05-15T00:59:32.442Z,99.90
2023-05-15T01:01:36.293Z,99.90
2023-05-15T01:03:39.772Z,99.90
2023-05-15T01:05:44.991Z,99.90
2023-05-15T01:07:53.139Z,99.90
2023-05-15T01:09:57.351Z,99.90
2023-05-15T01:12:02.033Z,99.90
2023-05-15T01:14:06.171Z,99.90
2023-05-15T01:16:09.871Z,99.90
2023-05-15T01:18:12.976Z,99.90
2023-05-15T01:20:19.600Z,99.90
2023-05-15T01:22:41.980Z,99.90
2023-05-15T01:25:24.041Z,99.90
2023-05-15T01:27:31.727Z,99.90
2023-05-15T01:29:42.184Z,99.90
2023-05-15T01:31:48.436Z,99.90
2023-05-15T01:33:56.482Z,99.90
2023-05-15T01:36:02.300Z,99.90
2023-05-15T01:38:15.632Z,99.90
2023-05-15T01:40:19.954Z,99.90
2023-05-15T01:42:27.370Z,99.90
2023-05-15T01:44:33.157Z,99.90
2023-05-15T01:46:39.929Z,99.90
2023-05-15T01:48:45.982Z,99.90
2023-05-15T01:50:52.848Z,99.90
2023-05-15T01:52:59.499Z,99.90
2023-05-15T01:55:03.584Z,99.90
2023-05-15T01:57:08.036Z,99.90
2023-05-15T01:59:11.728Z,99.90
2023-05-15T02:01:17.236Z,99.90
2023-05-15T02:03:21.090Z,99.90
2023-05-15T02:05:30.601Z,99.90
2023-05-15T02:07:36.586Z,99.90
2023-05-15T02:09:40.049Z,99.90
2023-05-15T02:11:43.444Z,99.90
2023-05-15T02:13:46.775Z,99.90
2023-05-15T02:15:49.913Z,99.90
2023-05-15T02:17:54.167Z,99.90
2023-05-15T02:19:57.065Z,99.90
2023-05-15T02:22:00.048Z,99.90
2023-05-15T02:24:02.890Z,99.90
2023-05-15T02:26:18.704Z,99.90
2023-05-15T02:28:29.666Z,99.90
2023-05-15T02:30:37.942Z,99.90
2023-05-15T02:32:48.252Z,99.90
2023-05-15T02:35:02.753Z,99.90
2023-05-15T02:37:11.890Z,99.90
2023-05-15T02:39:16.661Z,99.90
2023-05-15T02:41:23.023Z,99.90
2023-05-15T02:43:27.255Z,99.90
2023-05-15T02:45:30.995Z,99.90
2023-05-15T02:47:34.889Z,99.90
2023-05-15T02:49:38.966Z,99.90
2023-05-15T02:51:43.874Z,99.90
2023-05-15T02:53:47.103Z,99.90
2023-05-15T02:55:50.115Z,99.90
2023-05-15T02:57:53.009Z,99.90
2023-05-15T02:59:57.240Z,99.90
2023-05-15T03:02:00.400Z,99.90
2023-05-15T03:04:03.345Z,99.90
2023-05-15T03:06:06.480Z,99.90
2023-05-15T03:08:10.593Z,99.90
2023-05-15T03:10:13.453Z,99.90
2023-05-15T03:12:16.372Z,99.90
2023-05-15T03:14:19.799Z,99.90
2023-05-15T03:16:22.748Z,99.90
2023-05-15T03:18:25.683Z,99.90
2023-05-15T03:20:28.503Z,99.90
2023-05-15T03:22:31.521Z,99.90
2023-05-15T03:24:35.807Z,99.90
2023-05-15T03:26:40.329Z,99.90
2023-05-15T03:28:43.184Z,99.90
2023-05-15T03:30:46.142Z,99.90
2023-05-15T03:32:49.263Z,99.90
2023-05-15T03:34:52.465Z,99.90
2023-05-15T03:36:55.573Z,99.90
2023-05-15T03:38:58.918Z,99.90
2023-05-15T03:41:03.233Z,99.90
2023-05-15T03:43:06.198Z,99.90
2023-05-15T03:45:10.202Z,99.90
2023-05-15T03:47:13.011Z,99.90
2023-05-15T03:49:15.999Z,99.90
2023-05-15T03:51:18.889Z,99.90
2023-05-15T03:53:22.029Z,99.90
2023-05-15T03:55:25.075Z,99.90
2023-05-15T03:57:29.491Z,99.90
2023-05-15T03:59:32.288Z,99.90
2023-05-15T04:01:44.080Z,99.90
2023-05-15T04:03:54.237Z,99.90
2023-05-15T04:05:57.071Z,99.90
2023-05-15T04:07:59.945Z,99.90
2023-05-15T04:10:02.987Z,99.90
2023-05-15T04:12:06.648Z,99.90
2023-05-15T04:14:10.913Z,99.90
2023-05-15T04:16:14.287Z,99.90
2023-05-15T04:18:17.387Z,99.90
2023-05-15T04:20:22.177Z,99.90
2023-05-15T04:22:25.059Z,99.90
2023-05-15T04:24:27.856Z,99.90
2023-05-15T04:26:31.523Z,99.90
2023-05-15T04:28:34.466Z,99.90
2023-05-15T04:30:38.631Z,99.90
2023-05-15T04:32:42.278Z,99.90
2023-05-15T04:34:46.032Z,99.90
2023-05-15T04:36:50.947Z,99.90
2023-05-15T04:38:53.900Z,99.90
2023-05-15T04:40:56.630Z,99.90
2023-05-15T04:42:59.404Z,99.90
2023-05-15T04:45:03.443Z,99.90
2023-05-15T04:47:07.860Z,99.90
2023-05-15T04:49:10.664Z,99.90
2023-05-15T04:51:13.745Z,99.90
2023-05-15T04:53:16.718Z,99.90
2023-05-15T04:55:19.746Z,99.90
2023-05-15T04:57:23.027Z,99.90
2023-05-15T04:59:27.455Z,99.90
2023-05-15T05:01:30.525Z,99.90
2023-05-15T05:03:34.952Z,99.90
2023-05-15T05:05:38.319Z,99.90
2023-05-15T05:07:42.272Z,99.90
2023-05-15T05:09:50.122Z,99.90
2023-05-15T05:11:53.004Z,99.90
2023-05-15T05:13:55.907Z,99.90
2023-05-15T05:15:58.899Z,99.90
2023-05-15T05:18:01.767Z,99.90
2023-05-15T05:20:12.684Z,99.90
2023-05-15T05:22:16.009Z,99.90
2023-05-15T05:24:18.866Z,99.90
2023-05-15T05:26:21.934Z,99.90
2023-05-15T05:28:24.852Z,99.90
2023-05-15T05:30:28.674Z,99.90
2023-05-15T05:32:31.739Z,99.90
2023-05-15T05:34:34.639Z,99.90
2023-05-15T05:36:38.771Z,99.90
2023-05-15T05:38:41.605Z,99.90
2023-05-15T05:40:44.550Z,99.90
2023-05-15T05:42:47.331Z,99.90
2023-05-15T05:44:50.270Z,99.90
2023-05-15T05:46:53.730Z,99.90
2023-05-15T05:48:56.587Z,99.90
2023-05-15T05:50:59.673Z,99.90
2023-05-15T05:53:04.063Z,99.90
2023-05-15T05:55:07.579Z,99.90
2023-05-15T05:57:11.035Z,99.90
2023-05-15T05:59:13.919Z,99.90
2023-05-15T06:01:16.773Z,99.90
2023-05-15T06:03:20.200Z,99.90
2023-05-15T06:05:23.419Z,99.90
2023-05-15T06:07:26.584Z,99.90
2023-05-15T06:09:31.128Z,99.90
2023-05-15T06:11:34.358Z,99.90
2023-05-15T06:13:37.600Z,99.90
2023-05-15T06:15:40.585Z,99.90
2023-05-15T06:17:45.844Z,99.90
2023-05-15T06:19:48.741Z,99.90
2023-05-15T06:21:51.607Z,99.90
2023-05-15T06:23:54.513Z,99.90
2023-05-15T06:25:58.851Z,99.90
2023-05-15T06:28:01.733Z,99.90
2023-05-15T06:30:05.129Z,99.90
2023-05-15T06:32:08.519Z,99.90
2023-05-15T06:34:11.322Z,99.90
2023-05-15T06:36:14.237Z,99.90
2023-05-15T06:38:17.168Z,99.90
2023-05-15T06:40:20.266Z,99.90
2023-05-15T06:42:24.643Z,99.90
2023-05-15T06:44:27.481Z,99.90
2023-05-15T06:46:30.535Z,99.90
2023-05-15T06:48:33.466Z,99.90
2023-05-15T06:50:36.349Z,99.90
2023-05-15T06:52:39.260Z,99.90
2023-05-15T06:54:43.152Z,99.90
2023-05-15T06:56:46.064Z,99.90
2023-05-15T06:58:50.388Z,99.90
2023-05-15T07:00:54.205Z,99.90
2023-05-15T07:02:59.033Z,99.90
2023-05-15T07:05:02.870Z,99.90
2023-05-15T07:07:06.268Z,99.90
2023-05-15T07:09:09.180Z,99.90
2023-05-15T07:11:12.018Z,99.90
2023-05-15T07:13:15.262Z,99.90
2023-05-15T07:15:19.771Z,99.90
2023-05-15T07:17:22.712Z,99.90
2023-05-15T07:19:25.648Z,99.90
2023-05-15T07:21:28.558Z,99.90
2023-05-15T07:23:31.420Z,99.90
2023-05-15T07:25:34.360Z,99.90
2023-05-15T07:27:37.254Z,99.90
2023-05-15T07:29:40.171Z,99.90
2023-05-15T07:31:44.678Z,99.90
2023-05-15T07:33:47.602Z,99.90
2023-05-15T07:35:51.951Z,99.90
2023-05-15T07:37:54.754Z,99.90
2023-05-15T07:39:57.660Z,99.90
2023-05-15T07:42:00.699Z,99.90
2023-05-15T07:44:03.684Z,99.90
2023-05-15T07:46:06.603Z,99.90
2023-05-15T07:48:18.587Z,99.90
2023-05-15T07:50:21.529Z,99.90
2023-05-15T07:52:24.279Z,99.90
2023-05-15T07:54:27.244Z,99.90
2023-05-15T07:56:30.179Z,99.90
2023-05-15T07:58:35.447Z,99.90
2023-05-15T08:00:38.459Z,99.90
2023-05-15T08:02:42.625Z,99.90
2023-05-15T08:04:46.902Z,99.90
2023-05-15T08:06:50.101Z,99.90
2023-05-15T08:08:53.289Z,99.90
2023-05-15T08:10:56.139Z,99.90
2023-05-15T08:12:58.974Z,99.90
2023-05-15T08:15:02.027Z,99.90
2023-05-15T08:17:05.065Z,99.90
2023-05-15T08:19:07.900Z,99.90
2023-05-15T08:21:12.161Z,99.90
2023-05-15T08:23:15.056Z,99.90
2023-05-15T08:25:17.991Z,99.90
2023-05-15T08:27:20.889Z,99.90
2023-05-15T08:29:23.862Z,99.90
2023-05-15T08:31:26.807Z,99.90
2023-05-15T08:33:29.982Z,99.90
2023-05-15T08:35:33.027Z,99.90
2023-05-15T08:37:37.249Z,99.60
2023-05-15T08:39:40.052Z,99.90
2023-05-15T08:41:49.221Z,99.90
2023-05-15T08:43:54.982Z,99.90
2023-05-15T08:45:57.909Z,99.40
2023-05-15T08:48:02.789Z,99.30
2023-05-15T08:50:08.283Z,99.90
2023-05-15T08:52:11.270Z,99.10
2023-05-15T08:54:15.965Z,98.90
2023-05-15T08:56:19.827Z,98.70
2023-05-15T08:58:26.040Z,99.30
2023-05-15T09:00:29.750Z,99.10
2023-05-15T09:02:32.565Z,98.80
2023-05-15T09:04:35.513Z,99.20
2023-05-15T09:06:40.861Z,99.60
2023-05-15T09:08:44.641Z,99.80
2023-05-15T09:10:50.143Z,99.80
2023-05-15T09:12:54.619Z,99.90
2023-05-15T09:15:10.678Z,99.50
2023-05-15T09:17:13.696Z,98.60
2023-05-15T09:19:17.220Z,98.70
2023-05-15T09:21:26.761Z,99.20
2023-05-15T09:23:29.657Z,99.50
2023-05-15T09:25:40.371Z,99.70
2023-05-15T09:27:45.419Z,99.30
2023-05-15T09:29:51.306Z,99.50
2023-05-15T09:31:54.741Z,99.40
2023-05-15T09:34:04.364Z,99.30
2023-05-15T09:36:08.690Z,99.90
2023-05-15T09:38:14.227Z,99.90
2023-05-15T09:40:20.278Z,99.50
2023-05-15T09:42:25.840Z,98.80
2023-05-15T09:44:29.978Z,98.20
2023-05-15T09:46:36.821Z,98.50
2023-05-15T09:48:40.166Z,98.70
2023-05-15T09:50:43.362Z,99.20
2023-05-15T09:52:46.525Z,98.20
2023-05-15T09:54:51.100Z,98.90
2023-05-15T09:56:55.069Z,99.10
2023-05-15T09:58:59.716Z,99.10
2023-05-15T10:01:04.454Z,98.10
2023-05-15T10:03:08.960Z,98.60
2023-05-15T10:05:13.165Z,98.70
2023-05-15T10:07:28.929Z,97.60
2023-05-15T10:09:32.337Z,97.00
2023-05-15T10:11:36.579Z,96.60
2023-05-15T10:13:39.657Z,94.70
2023-05-15T10:15:43.586Z,94.50
2023-05-15T10:17:49.430Z,95.50
2023-05-15T10:19:58.046Z,96.30
2023-05-15T10:22:01.693Z,96.70
2023-05-15T10:24:05.519Z,96.90
2023-05-15T10:26:15.278Z,97.00
2023-05-15T10:28:19.804Z,97.80
2023-05-15T10:30:23.423Z,98.00
2023-05-15T10:32:27.916Z,98.40
2023-05-15T10:34:32.784Z,97.40
2023-05-15T10:36:37.979Z,96.30
2023-05-15T10:38:41.446Z,96.90
2023-05-15T10:40:45.946Z,97.00
2023-05-15T10:42:48.796Z,97.30
2023-05-15T10:44:53.914Z,96.70
2023-05-15T10:46:57.106Z,95.30
2023-05-15T10:49:00.472Z,95.80
2023-05-15T10:51:04.922Z,96.70
2023-05-15T10:53:10.042Z,97.60
2023-05-15T10:55:17.492Z,98.10
2023-05-15T10:57:22.605Z,97.30
2023-05-15T10:59:32.906Z,98.40
2023-05-15T11:01:37.563Z,98.60
2023-05-15T11:03:49.423Z,99.10
2023-05-15T11:06:11.004Z,99.40
2023-05-15T11:08:27.270Z,99.10
2023-05-15T11:10:48.333Z,99.80
2023-05-15T11:12:58.700Z,99.90
2023-05-15T11:15:28.494Z,99.90
2023-05-15T11:17:33.774Z,99.90
2023-05-15T11:19:57.603Z,99.90
2023-05-15T11:22:03.413Z,99.90
2023-05-15T11:24:07.429Z,99.90
2023-05-15T11:26:10.264Z,99.90
2023-05-15T11:28:23.369Z,99.90
2023-05-15T11:30:36.855Z,99.90
2023-05-15T11:32:50.239Z,99.90
2023-05-15T11:34:53.157Z,99.90
2023-05-15T11:36:56.042Z,99.90
2023-05-15T11:39:00.713Z,99.90
2023-05-15T11:41:04.000Z,99.90
2023-05-15T11:43:09.573Z,99.90
2023-05-15T11:45:12.654Z,99.90
2023-05-15T11:47:16.333Z,99.90
2023-05-15T11:49:21.126Z,99.90
2023-05-15T11:51:27.470Z,99.90
2023-05-15T11:53:31.618Z,99.90
2023-05-15T11:55:38.118Z,99.90
2023-05-15T11:57:41.319Z,99.90
2023-05-15T11:59:45.793Z,99.90
2023-05-15T12:01:49.044Z,99.90
2023-05-15T12:03:54.230Z,99.90
2023-05-15T12:06:00.296Z,99.90
2023-05-15T12:08:03.540Z,99.90
2023-05-15T12:10:07.422Z,99.90
2023-05-15T12:12:15.301Z,99.90
2023-05-15T12:14:20.704Z,99.90
2023-05-15T12:16:25.919Z,99.90
2023-05-15T12:18:28.764Z,99.90
2023-05-15T12:20:35.006Z,99.90
2023-05-15T12:22:38.984Z,99.90
2023-05-15T12:24:42.008Z,99.90
2023-05-15T12:26:44.931Z,99.90
2023-05-15T12:28:49.281Z,99.90
2023-05-15T12:30:52.440Z,99.20
2023-05-15T12:32:55.770Z,98.10
2023-05-15T12:34:58.836Z,98.30
2023-05-15T12:37:01.668Z,98.20
2023-05-15T12:39:07.759Z,97.70
2023-05-15T12:41:12.769Z,98.20
2023-05-15T12:43:15.865Z,98.80
2023-05-15T12:45:21.400Z,99.10
2023-05-15T12:47:25.453Z,97.70
2023-05-15T12:49:29.047Z,97.60
2023-05-15T12:51:33.250Z,97.50
2023-05-15T12:53:36.410Z,97.30
2023-05-15T12:55:40.885Z,97.00
2023-05-15T12:57:45.516Z,96.20
2023-05-15T12:59:48.430Z,95.20
2023-05-15T13:01:52.567Z,94.40
2023-05-15T13:03:55.609Z,94.30
2023-05-15T13:05:58.621Z,94.10
2023-05-15T13:08:02.834Z,92.90
2023-05-15T13:10:09.915Z,92.00
2023-05-15T13:12:13.405Z,92.10
2023-05-15T13:14:19.453Z,92.90
2023-05-15T13:16:24.974Z,94.60
2023-05-15T13:18:29.407Z,95.30
2023-05-15T13:20:34.971Z,97.10
2023-05-15T13:22:37.913Z,97.10
2023-05-15T13:24:40.920Z,97.70
2023-05-15T13:26:43.802Z,97.80
2023-05-15T13:28:46.828Z,98.70
2023-05-15T13:30:49.667Z,99.90
2023-05-15T13:32:55.548Z,99.90
2023-05-15T13:35:00.046Z,99.90
2023-05-15T13:37:02.812Z,99.90
2023-05-15T13:39:06.437Z,99.90
2023-05-15T13:41:09.456Z,99.90
2023-05-15T13:43:12.288Z,99.90
2023-05-15T13:45:16.736Z,99.90
2023-05-15T13:47:19.763Z,99.90
2023-05-15T13:49:22.765Z,99.90
2023-05-15T13:51:26.966Z,99.90
2023-05-15T13:53:30.097Z,99.90
2023-05-15T13:55:32.849Z,99.90
2023-05-15T13:57:35.758Z,99.90
2023-05-15T13:59:38.516Z,99.90
2023-05-15T14:01:41.338Z,99.90
2023-05-15T14:03:45.115Z,99.90
2023-05-15T14:05:47.939Z,99.90
2023-05-15T14:07:52.042Z,99.90
2023-05-15T14:09:54.940Z,99.90
2023-05-15T14:11:58.097Z,99.90
2023-05-15T14:14:01.020Z,99.90
2023-05-15T14:16:03.862Z,99.90
2023-05-15T14:18:07.379Z,99.90
2023-05-15T14:20:11.654Z,99.90
2023-05-15T14:22:14.819Z,99.90
2023-05-15T14:24:20.521Z,99.90
2023-05-15T14:26:23.311Z,99.90
2023-05-15T14:28:26.084Z,99.90
2023-05-15T14:30:28.901Z,99.90
2023-05-15T14:32:31.668Z,99.90
2023-05-15T14:34:35.191Z,99.90
2023-05-15T14:36:40.858Z,99.90
2023-05-15T14:38:45.586Z,99.90
2023-05-15T14:40:49.890Z,99.90
2023-05-15T14:42:52.994Z,99.90
2023-05-15T14:44:55.792Z,99.90
2023-05-15T14:47:08.537Z,99.90
2023-05-15T14:49:11.334Z,99.90
2023-05-15T14:51:14.266Z,99.90
2023-05-15T14:53:17.436Z,99.90
2023-05-15T14:55:21.881Z,99.90
2023-05-15T14:57:26.142Z,99.90
2023-05-15T14:59:29.502Z,99.90
2023-05-15T15:01:32.469Z,99.90
2023-05-15T15:03:35.342Z,99.90
2023-05-15T15:05:38.156Z,99.90
2023-05-15T15:08:00.510Z,99.90
2023-05-15T15:10:03.451Z,99.90
2023-05-15T15:12:07.265Z,99.90
2023-05-15T15:14:11.763Z,99.90
2023-05-15T15:16:14.604Z,99.90
2023-05-15T15:18:17.485Z,99.90
2023-05-15T15:20:21.905Z,99.90
2023-05-15T15:22:24.785Z,99.90
2023-05-15T15:24:28.404Z,99.90
2023-05-15T15:26:32.050Z,99.90
2023-05-15T15:28:35.039Z,99.90
2023-05-15T15:30:39.266Z,99.90
2023-05-15T15:32:43.290Z,99.90
2023-05-15T15:34:46.117Z,99.90
2023-05-15T15:36:48.994Z,99.90
2023-05-15T15:38:51.805Z,99.90
2023-05-15T15:40:54.603Z,99.90
2023-05-15T15:42:57.572Z,99.90
2023-05-15T15:45:00.687Z,99.90
2023-05-15T15:47:05.326Z,99.90
2023-05-15T15:49:08.340Z,99.90
2023-05-15T15:51:11.137Z,99.90
2023-05-15T15:53:13.888Z,99.90
2023-05-15T15:55:16.713Z,99.90
2023-05-15T15:57:20.387Z,99.90
2023-05-15T15:59:23.395Z,99.90
2023-05-15T16:01:26.378Z,99.90
2023-05-15T16:03:30.919Z,99.90
2023-05-15T16:05:34.131Z,99.90
2023-05-15T16:07:37.058Z,99.90
2023-05-15T16:09:40.084Z,99.90
2023-05-15T16:11:42.897Z,99.90
2023-05-15T16:13:45.909Z,99.90
2023-05-15T16:15:48.863Z,99.90
2023-05-15T16:17:52.677Z,99.90
2023-05-15T16:19:57.151Z,99.90
2023-05-15T16:22:00.000Z,99.90
2023-05-15T16:24:02.957Z,99.90
2023-05-15T16:26:06.522Z,99.90
2023-05-15T16:28:10.118Z,99.90
2023-05-15T16:30:14.344Z,99.90
2023-05-15T16:32:17.193Z,99.90
2023-05-15T16:34:20.714Z,99.90
2023-05-15T16:36:24.851Z,99.90
2023-05-15T16:38:27.758Z,99.90
2023-05-15T16:40:30.585Z,99.90
2023-05-15T16:42:37.052Z,99.90
2023-05-15T16:44:39.990Z,99.90
2023-05-15T16:46:42.881Z,99.90
2023-05-15T16:48:45.866Z,99.90
2023-05-15T16:50:48.696Z,99.90
2023-05-15T16:52:52.783Z,99.90
2023-05-15T16:54:55.781Z,99.90
2023-05-15T16:56:58.480Z,99.90
2023-05-15T16:59:01.402Z,99.90
2023-05-15T17:01:05.232Z,99.90
2023-05-15T17:03:08.409Z,99.90
2023-05-15T17:05:12.134Z,99.90
2023-05-15T17:07:14.939Z,99.90
2023-05-15T17:09:19.035Z,99.90
2023-05-15T17:11:21.990Z,99.90
2023-05-15T17:13:26.505Z,99.90
2023-05-15T17:15:31.947Z,99.90
2023-05-15T17:17:34.951Z,99.90
2023-05-15T17:19:37.827Z,99.90
2023-05-15T17:21:40.697Z,99.90
2023-05-15T17:23:43.412Z,99.90
2023-05-15T17:25:47.506Z,99.90
2023-05-15T17:27:50.504Z,99.90
2023-05-15T17:29:53.514Z,99.90
2023-05-15T17:31:56.331Z,99.90
2023-05-15T17:34:00.212Z,99.90
2023-05-15T17:36:03.211Z,99.90
2023-05-15T17:38:06.186Z,99.90
2023-05-15T17:40:10.104Z,99.90
2023-05-15T17:42:14.267Z,99.90
2023-05-15T17:44:17.180Z,99.90
2023-05-15T17:46:19.991Z,99.90
2023-05-15T17:48:23.046Z,99.90
2023-05-15T17:50:25.854Z,99.90
2023-05-15T17:52:28.645Z,99.90
2023-05-15T17:54:32.074Z,99.90
2023-05-15T17:56:34.822Z,99.90
2023-05-15T17:58:38.894Z,99.90
2023-05-15T18:00:41.669Z,99.90
2023-05-15T18:02:44.482Z,99.90
2023-05-15T18:04:47.260Z,99.90
2023-05-15T18:06:50.064Z,99.90
2023-05-15T18:08:52.902Z,99.90
2023-05-15T18:10:55.893Z,99.90
2023-05-15T18:12:59.329Z,99.90
2023-05-15T18:15:03.884Z,99.90
2023-05-15T18:17:07.119Z,99.90
2023-05-15T18:19:09.920Z,99.90
2023-05-15T18:21:12.686Z,99.90
2023-05-15T18:23:16.626Z,99.90
2023-05-15T18:25:19.395Z,99.90
2023-05-15T18:27:22.116Z,99.90
2023-05-15T18:29:25.009Z,99.90
2023-05-15T18:31:29.126Z,99.90
2023-05-15T18:33:31.953Z,99.90
2023-05-15T18:35:35.546Z,99.90
2023-05-15T18:37:38.369Z,99.90
2023-05-15T18:39:42.796Z,99.90
2023-05-15T18:41:45.542Z,99.90
2023-05-15T18:43:48.260Z,99.90
2023-05-15T18:45:51.286Z,99.90
2023-05-15T18:47:55.811Z,99.90
2023-05-15T18:49:58.718Z,99.90
2023-05-15T18:52:01.514Z,99.90
2023-05-15T18:54:04.441Z,99.90
2023-05-15T18:56:07.230Z,99.90
2023-05-15T18:58:09.994Z,99.90
2023-05-15T19:00:16.805Z,99.90
2023-05-15T19:02:25.981Z,99.90
2023-05-15T19:04:30.333Z,99.90
2023-05-15T19:06:33.347Z,99.90
2023-05-15T19:08:36.112Z,99.90
2023-05-15T19:10:38.962Z,99.90
2023-05-15T19:12:41.910Z,99.90
2023-05-15T19:14:44.763Z,99.90
2023-05-15T19:16:47.672Z,99.90
2023-05-15T19:18:50.494Z,99.90
2023-05-15T19:20:56.564Z,99.90
2023-05-15T19:22:59.321Z,99.90
2023-05-15T19:25:02.133Z,99.90
2023-05-15T19:27:05.634Z,99.90
2023-05-15T19:29:08.400Z,99.90
2023-05-15T19:31:20.425Z,99.90
2023-05-15T19:33:33.555Z,99.90
2023-05-15T19:35:37.638Z,99.90
2023-05-15T19:37:43.246Z,99.90
2023-05-15T19:39:46.019Z,99.90
2023-05-15T19:41:48.806Z,99.90
2023-05-15T19:43:51.955Z,99.90
2023-05-15T19:45:54.901Z,99.90
2023-05-15T19:47:58.836Z,99.90
2023-05-15T19:50:01.669Z,99.90
2023-05-15T19:52:04.780Z,99.90
2023-05-15T19:54:09.722Z,99.90
2023-05-15T19:56:13.707Z,99.90
2023-05-15T19:58:16.513Z,99.90
2023-05-15T20:00:19.951Z,99.90
2023-05-15T20:02:23.108Z,99.90
2023-05-15T20:04:26.131Z,99.90
2023-05-15T20:06:30.080Z,99.90
2023-05-15T20:08:32.930Z,99.90
2023-05-15T20:10:40.156Z,99.90
2023-05-15T20:12:43.111Z,99.90
2023-05-15T20:14:49.650Z,99.90
2023-05-15T20:16:52.524Z,99.90
2023-05-15T20:18:55.677Z,99.90
2023-05-15T20:20:58.396Z,99.90
2023-05-15T20:23:01.216Z,99.90
2023-05-15T20:25:04.177Z,99.90
2023-05-15T20:27:08.999Z,99.90
2023-05-15T20:29:11.813Z,99.90
2023-05-15T20:31:14.985Z,99.90
2023-05-15T20:33:17.919Z,99.90
2023-05-15T20:35:20.930Z,99.90
2023-05-15T20:37:27.117Z,99.90
2023-05-15T20:39:30.075Z,99.90
2023-05-15T20:41:32.861Z,99.90
2023-05-15T20:43:38.325Z,99.90
2023-05-15T20:45:42.176Z,99.90
2023-05-15T20:47:45.145Z,99.90
2023-05-15T20:49:47.901Z,99.90
2023-05-15T20:51:50.653Z,99.90
2023-05-15T20:53:53.430Z,99.90
2023-05-15T20:55:56.513Z,99.90
2023-05-15T20:57:59.269Z,99.90
2023-05-15T21:00:05.212Z,99.90
2023-05-15T21:02:08.273Z,99.90
2023-05-15T21:04:11.028Z,99.90
2023-05-15T21:06:14.846Z,99.90
2023-05-15T21:08:17.916Z,99.90
2023-05-15T21:10:20.697Z,99.90
2023-05-15T21:12:23.717Z,99.90
2023-05-15T21:14:26.749Z,99.90
2023-05-15T21:16:30.854Z,99.90
2023-05-15T21:18:33.662Z,99.90
2023-05-15T21:20:36.392Z,99.90
2023-05-15T21:22:39.140Z,99.90
2023-05-15T21:24:41.987Z,99.90
2023-05-15T21:26:45.443Z,99.90
2023-05-15T21:28:48.236Z,99.90
2023-05-15T21:30:51.003Z,99.90
2023-05-15T21:32:56.040Z,99.90
2023-05-15T21:34:58.833Z,99.90
2023-05-15T21:37:01.619Z,99.90
2023-05-15T21:39:04.730Z,99.90
2023-05-15T21:41:07.512Z,99.90
2023-05-15T21:43:10.516Z,99.90
2023-05-15T21:45:13.433Z,99.90
2023-05-15T21:47:16.224Z,99.90
2023-05-15T21:49:20.315Z,99.90
2023-05-15T21:51:23.275Z,99.90
2023-05-15T21:53:26.320Z,99.90
2023-05-15T21:55:29.237Z,99.90
2023-05-15T21:57:31.978Z,99.90
2023-05-15T21:59:34.727Z,99.90
2023-05-15T22:01:37.709Z,99.90
2023-05-15T22:03:40.669Z,99.90
2023-05-15T22:05:45.415Z,99.90
2023-05-15T22:07:48.275Z,99.90
2023-05-15T22:09:51.756Z,99.90
2023-05-15T22:11:54.804Z,99.90
2023-05-15T22:13:57.663Z,99.90
2023-05-15T22:16:00.705Z,99.90
2023-05-15T22:18:05.330Z,99.90
2023-05-15T22:20:13.720Z,99.90
2023-05-15T22:22:17.992Z,99.90
2023-05-15T22:24:20.972Z,99.90
2023-05-15T22:26:24.157Z,99.90
2023-05-15T22:28:26.984Z,99.90
2023-05-15T22:30:29.894Z,99.90
2023-05-15T22:32:32.819Z,99.90
2023-05-15T22:34:35.779Z,99.90
2023-05-15T22:36:38.629Z,99.90
2023-05-15T22:38:43.111Z,99.90
2023-05-15T22:40:50.446Z,99.90
2023-05-15T22:42:53.391Z,99.90
2023-05-15T22:44:57.493Z,99.90
2023-05-15T22:47:03.259Z,99.90
2023-05-15T22:49:09.889Z,99.90
2023-05-15T22:51:13.090Z,99.90
2023-05-15T22:53:16.424Z,99.90
2023-05-15T22:55:20.628Z,99.90
2023-05-15T22:57:24.225Z,99.90
2023-05-15T22:59:27.150Z,99.90
2023-05-15T23:01:31.409Z,99.90
2023-05-15T23:03:34.627Z,99.90
2023-05-15T23:05:37.608Z,99.90
2023-05-15T23:07:40.439Z,99.90
2023-05-15T23:09:43.938Z,99.90
2023-05-15T23:11:48.189Z,99.90
2023-05-15T23:13:51.171Z,99.90
2023-05-15T23:15:54.190Z,99.90
2023-05-15T23:17:57.515Z,99.90
2023-05-15T23:20:00.755Z,99.90
2023-05-15T23:22:03.624Z,99.90
2023-05-15T23:24:07.071Z,99.90
2023-05-15T23:26:09.967Z,99.90
2023-05-15T23:28:15.543Z,99.90
2023-05-15T23:30:18.692Z,99.90
2023-05-15T23:32:21.675Z,99.90
2023-05-15T23:34:24.665Z,99.90
2023-05-15T23:36:27.546Z,99.90
2023-05-15T23:38:30.478Z,99.90
2023-05-15T23:40:33.384Z,99.90
2023-05-15T23:42:36.262Z,99.90
2023-05-15T23:44:40.606Z,99.90
2023-05-15T23:46:43.537Z,99.90
2023-05-15T23:48:46.707Z,99.90
2023-05-15T23:50:49.520Z,99.90
2023-05-15T23:52:52.365Z,99.90
2023-05-15T23:54:55.438Z,99.90
2023-05-15T23:56:58.248Z,99.90
2023-05-15T23:59:02.099Z,99.90
